createdAt,value
2018-06-21T00:00:57.854Z,4.90
2018-06-21T00:03:26.308Z,4.90
2018-06-21T00:05:54.826Z,5.20
2018-06-21T00:08:23.314Z,5.23
2018-06-21T00:10:51.758Z,4.40
2018-06-21T00:13:20.269Z,4.80
2018-06-21T00:15:48.767Z,5.13
2018-06-21T00:18:17.373Z,5.13
2018-06-21T00:20:46.031Z,4.97
2018-06-21T00:23:14.582Z,5.00
2018-06-21T00:25:43.147Z,5.10
2018-06-21T00:28:12.040Z,4.53
2018-06-21T00:30:40.613Z,5.13
2018-06-21T00:33:09.188Z,5.23
2018-06-21T00:35:37.653Z,4.77
2018-06-21T00:38:06.205Z,5.30
2018-06-21T00:40:34.792Z,4.70
2018-06-21T00:43:03.280Z,4.97
2018-06-21T00:45:31.743Z,5.33
2018-06-21T00:48:00.296Z,5.43
2018-06-21T00:50:28.855Z,5.30
2018-06-21T00:52:57.401Z,4.37
2018-06-21T00:55:36.860Z,5.10
2018-06-21T00:58:05.638Z,5.57
2018-06-21T01:00:34.229Z,5.20
2018-06-21T01:03:02.743Z,5.70
2018-06-21T01:05:31.271Z,5.13
2018-06-21T01:07:59.776Z,5.10
2018-06-21T01:10:28.212Z,5.87
2018-06-21T01:12:56.713Z,5.30
2018-06-21T01:15:25.232Z,5.20
2018-06-21T01:17:53.713Z,5.10
2018-06-21T01:20:22.230Z,5.23
2018-06-21T01:22:50.739Z,5.63
2018-06-21T01:25:19.283Z,5.27
2018-06-21T01:27:47.735Z,5.47
2018-06-21T01:30:16.267Z,5.67
2018-06-21T01:32:44.699Z,5.67
2018-06-21T01:35:13.217Z,5.70
2018-06-21T01:37:41.681Z,6.20
2018-06-21T01:40:10.125Z,6.23
2018-06-21T01:42:38.540Z,6.00
2018-06-21T01:45:07.144Z,5.83
2018-06-21T01:47:35.640Z,6.57
2018-06-21T01:50:04.212Z,5.83
2018-06-21T01:52:32.728Z,6.30
2018-06-21T01:55:01.383Z,6.03
2018-06-21T01:57:29.912Z,6.07
2018-06-21T01:59:58.460Z,6.30
2018-06-21T02:02:27.008Z,5.97
2018-06-21T02:04:55.502Z,6.30
2018-06-21T02:07:24.114Z,6.10
2018-06-21T02:09:52.678Z,9.07
2018-06-21T02:12:21.277Z,7.30
2018-06-21T02:14:49.860Z,7.10
2018-06-21T02:17:18.373Z,7.17
2018-06-21T02:19:46.989Z,6.60
2018-06-21T02:22:15.536Z,7.13
2018-06-21T02:24:44.087Z,7.30
2018-06-21T02:27:12.584Z,7.50
2018-06-21T02:29:41.115Z,7.80
2018-06-21T02:32:09.607Z,6.87
2018-06-21T02:34:38.136Z,7.60
2018-06-21T02:37:06.752Z,7.63
2018-06-21T02:39:35.293Z,8.13
2018-06-21T02:42:03.784Z,8.20
2018-06-21T02:44:32.256Z,8.33
2018-06-21T02:47:00.856Z,7.70
2018-06-21T02:49:29.963Z,7.83
2018-06-21T02:51:58.474Z,8.07
2018-06-21T02:54:27.296Z,7.90
2018-06-21T02:56:55.878Z,8.00
2018-06-21T02:59:24.530Z,7.90
2018-06-21T03:01:53.143Z,8.33
2018-06-21T03:04:21.626Z,8.57
2018-06-21T03:06:50.306Z,8.83
2018-06-21T03:09:18.770Z,7.80
2018-06-21T03:11:47.796Z,7.63
2018-06-21T03:14:16.418Z,8.60
2018-06-21T03:16:44.939Z,7.87
2018-06-21T03:19:13.404Z,7.83
2018-06-21T03:21:41.902Z,8.27
2018-06-21T03:24:10.346Z,8.50
2018-06-21T03:26:38.885Z,8.07
2018-06-21T03:29:07.380Z,8.27
2018-06-21T03:31:35.969Z,8.37
2018-06-21T03:34:04.486Z,8.20
2018-06-21T03:36:32.969Z,7.77
2018-06-21T03:39:01.467Z,8.37
2018-06-21T03:41:30.029Z,7.87
2018-06-21T03:43:59.381Z,7.23
2018-06-21T03:46:27.926Z,7.63
2018-06-21T03:48:56.436Z,7.87
2018-06-21T03:51:25.087Z,7.20
2018-06-21T03:53:53.850Z,7.83
2018-06-21T03:56:22.754Z,7.13
2018-06-21T03:58:51.319Z,7.17
2018-06-21T04:01:19.766Z,7.57
2018-06-21T04:03:48.989Z,7.60
2018-06-21T04:06:17.673Z,7.87
2018-06-21T04:08:46.335Z,7.70
2018-06-21T04:11:14.992Z,7.30
2018-06-21T04:13:43.720Z,7.73
2018-06-21T04:16:12.335Z,7.50
2018-06-21T04:18:40.893Z,6.60
2018-06-21T04:21:09.935Z,6.97
2018-06-21T04:23:38.397Z,7.10
2018-06-21T04:26:07.271Z,6.70
2018-06-21T04:28:35.864Z,6.90
2018-06-21T04:31:04.456Z,7.73
2018-06-21T04:33:33.221Z,5.67
2018-06-21T04:36:02.024Z,7.27
2018-06-21T04:38:30.775Z,6.63
2018-06-21T04:40:59.650Z,6.77
2018-06-21T04:43:28.624Z,6.87
2018-06-21T04:45:57.428Z,7.00
2018-06-21T04:48:25.954Z,7.27
2018-06-21T04:50:54.830Z,7.07
2018-06-21T04:53:23.415Z,6.83
2018-06-21T04:55:52.091Z,7.10
2018-06-21T04:58:20.847Z,6.83
2018-06-21T05:00:49.538Z,6.60
2018-06-21T05:03:18.313Z,6.50
2018-06-21T05:05:47.054Z,6.27
2018-06-21T05:08:15.561Z,6.33
2018-06-21T05:10:44.156Z,7.13
2018-06-21T05:13:12.905Z,7.33
2018-06-21T05:15:41.666Z,7.90
2018-06-21T05:18:10.814Z,8.20
2018-06-21T05:20:39.628Z,7.87
2018-06-21T05:23:08.422Z,7.93
2018-06-21T05:25:37.049Z,8.43
2018-06-21T05:28:05.836Z,8.20
2018-06-21T05:30:34.412Z,9.13
2018-06-21T05:33:03.121Z,8.57
2018-06-21T05:35:31.943Z,9.57
2018-06-21T05:38:00.541Z,10.40
2018-06-21T05:40:33.739Z,12.00
2018-06-21T05:43:02.958Z,13.03
2018-06-21T05:45:31.676Z,12.50
2018-06-21T05:48:01.602Z,13.17
2018-06-21T05:50:31.352Z,12.77
2018-06-21T05:53:00.535Z,13.77
2018-06-21T05:55:30.111Z,13.20
2018-06-21T05:57:58.722Z,13.60
2018-06-21T06:00:27.282Z,14.53
2018-06-21T06:02:55.963Z,15.00
2018-06-21T06:05:24.565Z,14.47
2018-06-21T06:07:53.310Z,16.00
2018-06-21T06:10:22.372Z,15.87
2018-06-21T06:12:50.929Z,16.47
2018-06-21T06:15:19.461Z,16.40
2018-06-21T06:17:48.008Z,17.50
2018-06-21T06:20:16.562Z,17.23
2018-06-21T06:22:45.424Z,15.63
2018-06-21T06:25:14.089Z,17.40
2018-06-21T06:27:42.625Z,17.37
2018-06-21T06:30:11.194Z,16.37
2018-06-21T06:32:39.822Z,17.40
2018-06-21T06:35:08.388Z,17.63
2018-06-21T06:37:37.169Z,14.90
2018-06-21T06:40:05.773Z,17.03
2018-06-21T06:42:34.462Z,16.83
2018-06-21T06:45:03.024Z,17.60
2018-06-21T06:47:31.738Z,16.70
2018-06-21T06:50:00.404Z,16.77
2018-06-21T06:52:28.960Z,17.27
2018-06-21T06:54:57.551Z,16.37
2018-06-21T06:57:26.603Z,17.77
2018-06-21T06:59:55.192Z,18.73
2018-06-21T07:02:24.055Z,20.13
2018-06-21T07:04:52.931Z,20.13
2018-06-21T07:07:21.400Z,21.80
2018-06-21T07:09:49.963Z,18.57
2018-06-21T07:12:18.663Z,19.33
2018-06-21T07:14:47.381Z,20.50
2018-06-21T07:17:15.972Z,20.37
2018-06-21T07:19:44.607Z,19.93
2018-06-21T07:22:13.214Z,19.43
2018-06-21T07:24:42.835Z,20.23
2018-06-21T07:27:11.777Z,18.87
2018-06-21T07:29:40.471Z,19.20
2018-06-21T07:32:09.047Z,18.63
2018-06-21T07:34:37.782Z,17.70
2018-06-21T07:37:06.460Z,16.77
2018-06-21T07:39:35.029Z,18.27
2018-06-21T07:42:03.732Z,16.43
2018-06-21T07:44:32.325Z,15.03
2018-06-21T07:47:00.876Z,15.77
2018-06-21T07:49:29.465Z,16.80
2018-06-21T07:51:58.077Z,16.40
2018-06-21T07:54:27.317Z,16.57
2018-06-21T07:56:56.088Z,14.03
2018-06-21T07:59:25.057Z,11.40
2018-06-21T08:01:53.892Z,9.63
2018-06-21T08:04:22.781Z,9.87
2018-06-21T08:06:51.448Z,9.20
2018-06-21T08:09:20.297Z,8.37
2018-06-21T08:11:49.005Z,9.57
2018-06-21T08:14:17.723Z,9.17
2018-06-21T08:16:46.345Z,9.50
2018-06-21T08:19:15.041Z,10.63
2018-06-21T08:21:43.884Z,9.53
2018-06-21T08:24:12.570Z,9.17
2018-06-21T08:26:41.404Z,8.63
2018-06-21T08:29:10.100Z,6.50
2018-06-21T08:31:38.747Z,5.53
2018-06-21T08:34:07.528Z,4.73
2018-06-21T08:36:36.116Z,5.47
2018-06-21T08:39:06.505Z,4.83
2018-06-21T08:41:36.120Z,4.33
2018-06-21T08:44:05.123Z,4.50
2018-06-21T08:46:33.814Z,4.53
2018-06-21T08:49:02.436Z,4.43
2018-06-21T08:51:31.314Z,4.83
2018-06-21T08:54:00.741Z,5.13
2018-06-21T08:56:29.464Z,5.70
2018-06-21T08:58:58.233Z,5.90
2018-06-21T09:01:26.903Z,4.90
2018-06-21T09:04:02.785Z,4.50
2018-06-21T09:06:31.590Z,4.13
2018-06-21T09:09:00.343Z,3.67
2018-06-21T09:11:29.042Z,3.50
2018-06-21T09:13:57.857Z,3.40
2018-06-21T09:16:26.638Z,3.60
2018-06-21T09:18:55.349Z,3.80
2018-06-21T09:21:24.188Z,3.73
2018-06-21T09:23:52.867Z,3.53
2018-06-21T09:26:21.516Z,3.30
2018-06-21T09:28:50.316Z,4.13
2018-06-21T09:31:19.030Z,4.10
2018-06-21T09:33:47.843Z,3.80
2018-06-21T09:36:16.489Z,3.90
2018-06-21T09:38:50.361Z,4.07
2018-06-21T09:41:24.076Z,3.63
2018-06-21T09:44:03.823Z,3.00
2018-06-21T09:46:34.512Z,3.90
2018-06-21T09:49:00.646Z,3.40
2018-06-21T09:51:29.407Z,3.23
2018-06-21T09:53:58.029Z,3.33
2018-06-21T09:56:26.570Z,3.47
2018-06-21T09:58:55.181Z,2.90
2018-06-21T10:01:23.801Z,3.20
2018-06-21T10:03:52.488Z,3.20
2018-06-21T10:06:22.169Z,2.83
2018-06-21T10:08:52.009Z,2.77
2018-06-21T10:11:20.672Z,3.00
2018-06-21T10:13:49.301Z,3.10
2018-06-21T10:16:17.878Z,3.63
2018-06-21T10:18:46.400Z,3.17
2018-06-21T10:21:15.047Z,2.50
2018-06-21T10:23:43.613Z,2.55
2018-06-21T10:26:12.210Z,2.12
2018-06-21T10:28:40.873Z,2.20
2018-06-21T10:31:09.418Z,2.27
2018-06-21T10:33:38.036Z,2.40
2018-06-21T10:36:06.744Z,2.55
2018-06-21T10:38:35.295Z,2.55
2018-06-21T10:41:03.937Z,2.50
2018-06-21T10:43:32.869Z,3.10
2018-06-21T10:46:01.620Z,3.50
2018-06-21T10:48:30.256Z,2.55
2018-06-21T10:50:58.838Z,2.00
2018-06-21T10:53:27.487Z,2.77
2018-06-21T10:55:56.110Z,2.37
2018-06-21T10:58:25.402Z,2.20
2018-06-21T11:00:54.248Z,2.10
2018-06-21T11:03:23.018Z,2.15
2018-06-21T11:05:51.723Z,2.33
2018-06-21T11:08:20.279Z,2.60
2018-06-21T11:10:49.108Z,2.50
2018-06-21T11:13:17.872Z,2.35
2018-06-21T11:15:46.460Z,2.72
2018-06-21T11:18:15.047Z,2.10
2018-06-21T11:20:44.025Z,1.72
2018-06-21T11:23:12.640Z,1.87
2018-06-21T11:25:41.246Z,2.35
2018-06-21T11:28:09.826Z,1.52
2018-06-21T11:30:38.480Z,2.30
2018-06-21T11:33:07.016Z,2.27
2018-06-21T11:35:35.696Z,1.73
2018-06-21T11:38:04.437Z,1.77
2018-06-21T11:40:33.212Z,1.80
2018-06-21T11:43:01.838Z,1.30
2018-06-21T11:45:30.564Z,2.10
2018-06-21T11:47:59.285Z,1.50
2018-06-21T11:50:27.965Z,1.73
2018-06-21T11:52:56.568Z,1.33
2018-06-21T11:55:25.193Z,1.47
2018-06-21T11:57:53.673Z,1.40
2018-06-21T12:00:22.327Z,1.07
2018-06-21T12:02:50.829Z,1.30
2018-06-21T12:05:19.398Z,1.23
2018-06-21T12:07:47.916Z,1.30
2018-06-21T12:10:16.556Z,1.30
2018-06-21T12:12:45.065Z,1.60
2018-06-21T12:15:13.796Z,1.20
2018-06-21T12:17:42.339Z,1.40
2018-06-21T12:20:10.971Z,1.27
2018-06-21T12:22:39.762Z,1.33
2018-06-21T12:25:08.492Z,1.40
2018-06-21T12:27:37.068Z,1.40
2018-06-21T12:30:05.641Z,1.13
2018-06-21T12:32:34.224Z,1.37
2018-06-21T12:35:02.765Z,1.47
2018-06-21T12:37:31.354Z,1.40
2018-06-21T12:40:00.052Z,1.43
2018-06-21T12:42:28.767Z,1.13
2018-06-21T12:44:57.442Z,1.30
2018-06-21T12:47:26.250Z,1.30
2018-06-21T12:49:55.055Z,1.50
2018-06-21T12:52:27.672Z,1.60
2018-06-21T12:54:56.353Z,1.27
2018-06-21T12:57:25.213Z,0.90
2018-06-21T13:00:01.378Z,1.37
2018-06-21T13:02:36.411Z,1.23
2018-06-21T13:05:05.047Z,1.20
2018-06-21T13:07:37.424Z,1.70
2018-06-21T13:13:28.421Z,1.47
2018-06-21T13:16:00.369Z,1.30
2018-06-21T13:18:43.383Z,1.60
2018-06-21T13:21:34.192Z,2.73
2018-06-21T13:24:03.359Z,1.23
2018-06-21T13:26:32.147Z,1.43
2018-06-21T13:29:02.328Z,1.20
2018-06-21T13:31:30.972Z,1.80
2018-06-21T13:33:59.715Z,1.77
2018-06-21T13:36:28.511Z,1.70
2018-06-21T13:38:57.566Z,1.67
2018-06-21T13:41:26.739Z,1.93
2018-06-21T13:43:55.567Z,2.17
2018-06-21T13:46:24.592Z,1.60
2018-06-21T13:48:53.490Z,1.20
2018-06-21T13:51:22.303Z,1.80
2018-06-21T13:53:51.021Z,1.80
2018-06-21T13:56:19.754Z,2.00
2018-06-21T13:58:48.691Z,1.30
2018-06-21T14:01:17.612Z,1.50
2018-06-21T14:03:46.275Z,1.40
2018-06-21T14:06:15.307Z,1.67
2018-06-21T14:08:44.198Z,1.20
2018-06-21T14:11:12.910Z,1.50
2018-06-21T14:13:42.329Z,2.00
2018-06-21T14:16:10.968Z,1.13
2018-06-21T14:18:46.746Z,1.60
2018-06-21T14:21:15.759Z,1.40
2018-06-21T14:23:45.357Z,1.33
2018-06-21T14:26:14.482Z,1.90
2018-06-21T14:28:44.713Z,1.30
2018-06-21T14:31:13.607Z,1.83
2018-06-21T14:33:42.712Z,1.47
2018-06-21T14:36:14.008Z,1.10
2018-06-21T14:38:42.917Z,1.80
2018-06-21T14:41:28.008Z,1.40
2018-06-21T14:44:02.225Z,1.57
2018-06-21T14:46:39.035Z,1.93
2018-06-21T14:49:09.831Z,1.50
2018-06-21T14:51:46.285Z,1.70
2018-06-21T14:54:15.061Z,1.40
2018-06-21T14:56:43.694Z,1.63
2018-06-21T14:59:12.353Z,1.70
2018-06-21T15:01:41.108Z,2.17
2018-06-21T15:04:09.923Z,2.23
2018-06-21T15:06:38.812Z,2.00
2018-06-21T15:09:13.829Z,1.87
2018-06-21T15:11:43.768Z,1.83
2018-06-21T15:14:12.383Z,1.40
2018-06-21T15:16:40.992Z,1.93
2018-06-21T15:19:09.762Z,1.63
2018-06-21T15:21:38.359Z,1.73
2018-06-21T15:24:07.002Z,1.80
2018-06-21T15:26:35.560Z,1.40
2018-06-21T15:29:04.289Z,1.43
2018-06-21T15:31:32.919Z,1.80
2018-06-21T15:34:01.585Z,2.33
2018-06-21T15:36:30.375Z,1.30
2018-06-21T15:38:59.900Z,1.50
2018-06-21T15:41:29.982Z,1.50
2018-06-21T15:43:58.944Z,1.60
2018-06-21T15:46:27.647Z,2.17
2018-06-21T15:48:56.641Z,2.13
2018-06-21T15:51:27.659Z,1.43
2018-06-21T15:53:56.297Z,1.40
2018-06-21T15:56:24.967Z,1.53
2018-06-21T15:58:53.552Z,1.43
2018-06-21T16:01:22.709Z,1.50
2018-06-21T16:03:51.737Z,1.20
2018-06-21T16:06:20.646Z,2.30
2018-06-21T16:08:50.338Z,1.43
2018-06-21T16:11:19.658Z,1.63
2018-06-21T16:13:48.805Z,1.60
2018-06-21T16:16:17.928Z,1.60
2018-06-21T16:18:46.754Z,1.40
2018-06-21T16:21:15.506Z,1.40
2018-06-21T16:23:44.271Z,1.30
2018-06-21T16:26:13.089Z,1.63
2018-06-21T16:28:41.988Z,1.97
2018-06-21T16:31:10.859Z,1.40
2018-06-21T16:33:39.826Z,1.40
2018-06-21T16:36:08.821Z,1.60
2018-06-21T16:38:37.620Z,1.50
2018-06-21T16:41:06.341Z,1.57
2018-06-21T16:43:35.167Z,1.20
2018-06-21T16:46:03.949Z,1.90
2018-06-21T16:48:32.653Z,1.40
2018-06-21T16:51:01.492Z,1.90
2018-06-21T16:53:30.300Z,1.60
2018-06-21T16:55:58.847Z,1.77
2018-06-21T16:58:27.761Z,1.60
2018-06-21T17:00:56.537Z,1.93
2018-06-21T17:03:25.859Z,1.87
2018-06-21T17:05:55.324Z,1.43
2018-06-21T17:08:24.933Z,1.40
2018-06-21T17:10:54.204Z,1.03
2018-06-21T17:13:23.274Z,1.47
2018-06-21T17:15:52.207Z,1.20
2018-06-21T17:18:21.253Z,1.40
2018-06-21T17:20:49.922Z,1.37
2018-06-21T17:23:18.557Z,1.00
2018-06-21T17:25:47.862Z,1.23
2018-06-21T17:28:16.630Z,0.80
2018-06-21T17:30:45.521Z,1.17
2018-06-21T17:33:14.528Z,1.17
2018-06-21T17:35:43.507Z,1.57
2018-06-21T17:38:12.732Z,1.97
2018-06-21T17:40:41.760Z,0.90
2018-06-21T17:43:11.130Z,1.33
2018-06-21T17:45:40.125Z,1.20
2018-06-21T17:48:09.459Z,1.27
2018-06-21T17:50:38.735Z,1.33
2018-06-21T17:53:08.254Z,1.30
2018-06-21T17:55:38.426Z,1.53
2018-06-21T17:58:07.626Z,1.00
2018-06-21T18:00:36.613Z,1.07
2018-06-21T18:03:05.528Z,1.53
2018-06-21T18:05:34.693Z,1.67
2018-06-21T18:08:03.845Z,1.27
2018-06-21T18:10:32.872Z,2.67
2018-06-21T18:13:02.189Z,1.13
2018-06-21T18:15:31.029Z,1.23
2018-06-21T18:17:59.802Z,1.33
2018-06-21T18:20:28.615Z,1.03
2018-06-21T18:22:57.587Z,1.20
2018-06-21T18:25:26.285Z,1.20
2018-06-21T18:27:55.646Z,1.37
2018-06-21T18:30:24.379Z,1.30
2018-06-21T18:32:53.098Z,1.60
2018-06-21T18:35:21.850Z,1.63
2018-06-21T18:37:50.575Z,1.87
2018-06-21T18:40:19.316Z,1.60
2018-06-21T18:42:48.111Z,2.03
2018-06-21T18:45:16.801Z,1.97
2018-06-21T18:47:45.448Z,1.33
2018-06-21T18:50:14.328Z,1.13
2018-06-21T18:52:43.344Z,1.30
2018-06-21T18:55:11.916Z,1.30
2018-06-21T18:57:40.657Z,1.47
2018-06-21T19:00:10.203Z,1.07
2018-06-21T19:02:39.745Z,1.10
2018-06-21T19:05:08.320Z,1.03
2018-06-21T19:07:40.726Z,1.20
2018-06-21T19:10:14.613Z,1.30
2018-06-21T19:12:43.365Z,1.40
2018-06-21T19:15:12.541Z,1.50
2018-06-21T19:17:41.121Z,1.40
2018-06-21T19:20:09.956Z,1.63
2018-06-21T19:22:38.449Z,1.83
2018-06-21T19:25:06.965Z,1.30
2018-06-21T19:27:35.441Z,1.43
2018-06-21T19:30:05.981Z,1.17
2018-06-21T19:32:34.912Z,1.37
2018-06-21T19:35:03.539Z,1.87
2018-06-21T19:37:32.175Z,1.30
2018-06-21T19:40:01.058Z,1.07
2018-06-21T19:42:30.160Z,1.10
2018-06-21T19:44:58.812Z,1.40
2018-06-21T19:47:27.386Z,1.20
2018-06-21T19:49:55.983Z,1.27
2018-06-21T19:52:24.602Z,1.47
2018-06-21T19:54:53.367Z,1.60
2018-06-21T19:57:22.218Z,1.47
2018-06-21T19:59:50.797Z,1.20
2018-06-21T20:02:19.484Z,1.63
2018-06-21T20:04:48.040Z,1.80
2018-06-21T20:07:17.075Z,1.60
2018-06-21T20:09:45.651Z,1.40
2018-06-21T20:12:14.652Z,1.70
2018-06-21T20:14:43.228Z,1.30
2018-06-21T20:17:11.958Z,1.30
2018-06-21T20:19:45.570Z,1.50
2018-06-21T20:22:14.172Z,1.43
2018-06-21T20:24:42.906Z,1.17
2018-06-21T20:27:11.787Z,1.20
2018-06-21T20:29:40.626Z,1.73
2018-06-21T20:32:10.439Z,1.43
2018-06-21T20:34:39.123Z,1.10
2018-06-21T20:37:12.009Z,1.13
2018-06-21T20:39:40.732Z,1.30
2018-06-21T20:42:09.544Z,1.23
2018-06-21T20:44:38.225Z,1.80
2018-06-21T20:47:07.377Z,1.23
2018-06-21T20:49:37.796Z,1.30
2018-06-21T20:52:10.816Z,1.57
2018-06-21T20:54:39.636Z,1.47
2018-06-21T20:57:08.350Z,1.37
2018-06-21T20:59:36.935Z,1.23
2018-06-21T21:02:05.620Z,1.60
2018-06-21T21:05:15.925Z,1.20
2018-06-21T21:07:45.470Z,1.33
2018-06-21T21:10:15.177Z,1.53
2018-06-21T21:12:43.774Z,1.17
2018-06-21T21:15:13.299Z,1.10
2018-06-21T21:17:42.041Z,2.07
2018-06-21T21:20:10.919Z,1.53
2018-06-21T21:22:40.229Z,1.47
2018-06-21T21:25:08.796Z,2.10
2018-06-21T21:27:37.434Z,1.43
2018-06-21T21:30:07.356Z,1.20
2018-06-21T21:32:36.014Z,1.50
2018-06-21T21:35:04.584Z,1.37
2018-06-21T21:37:33.260Z,1.37
2018-06-21T21:40:05.948Z,1.37
2018-06-21T21:42:35.856Z,1.37
2018-06-21T21:45:05.396Z,1.93
2018-06-21T21:47:34.455Z,1.53
2018-06-21T21:50:03.301Z,1.50
2018-06-21T21:52:32.127Z,1.43
2018-06-21T21:55:01.149Z,1.73
2018-06-21T21:57:30.020Z,1.70
2018-06-21T21:59:58.875Z,1.73
2018-06-21T22:02:27.856Z,1.70
2018-06-21T22:04:56.932Z,1.43
2018-06-21T22:07:25.679Z,1.40
2018-06-21T22:09:54.413Z,1.47
2018-06-21T22:12:23.074Z,1.57
2018-06-21T22:14:51.679Z,1.70
2018-06-21T22:17:20.472Z,1.67
2018-06-21T22:19:51.673Z,1.50
2018-06-21T22:22:20.506Z,1.20
2018-06-21T22:24:49.382Z,1.47
2018-06-21T22:27:18.044Z,1.63
2018-06-21T22:29:46.653Z,1.60
2018-06-21T22:32:15.200Z,1.10
2018-06-21T22:34:43.907Z,1.60
2018-06-21T22:37:12.543Z,1.50
2018-06-21T22:39:41.381Z,1.60
2018-06-21T22:42:10.143Z,1.40
2018-06-21T22:44:38.822Z,2.10
2018-06-21T22:47:07.330Z,2.00
2018-06-21T22:49:35.910Z,2.50
2018-06-21T22:52:04.480Z,1.60
2018-06-21T22:54:33.101Z,1.73
2018-06-21T22:57:01.765Z,1.63
2018-06-21T22:59:30.328Z,1.97
2018-06-21T23:01:59.063Z,1.90
2018-06-21T23:04:27.671Z,1.83
2018-06-21T23:06:56.239Z,1.80
2018-06-21T23:09:25.071Z,2.10
2018-06-21T23:11:53.674Z,1.70
2018-06-21T23:14:22.272Z,1.93
2018-06-21T23:16:52.205Z,1.87
2018-06-21T23:19:33.447Z,1.70
2018-06-21T23:22:02.939Z,1.93
2018-06-21T23:24:31.568Z,2.10
2018-06-21T23:27:00.223Z,2.10
2018-06-21T23:29:28.871Z,1.60
2018-06-21T23:31:57.544Z,2.17
2018-06-21T23:34:26.247Z,1.87
2018-06-21T23:36:54.899Z,1.90
2018-06-21T23:39:23.589Z,2.20
2018-06-21T23:41:52.290Z,1.87
2018-06-21T23:44:20.932Z,1.70
2018-06-21T23:46:49.730Z,1.60
2018-06-21T23:49:18.310Z,1.83
2018-06-21T23:51:46.840Z,2.27
2018-06-21T23:54:15.576Z,2.47
2018-06-21T23:56:44.740Z,2.40
2018-06-21T23:59:13.290Z,2.20
